createdAt,value
2023-01-18T00:01:21.505Z,0.36
2023-01-18T00:03:52.988Z,0.38
2023-01-18T00:06:22.983Z,0.32
2023-01-18T00:08:57.404Z,0.28
2023-01-18T00:11:29.947Z,0.22
2023-01-18T00:14:02.631Z,0.26
2023-01-18T00:16:33.049Z,0.25
2023-01-18T00:19:03.837Z,0.25
2023-01-18T00:21:34.107Z,0.30
2023-01-18T00:24:04.495Z,0.32
2023-01-18T00:26:37.112Z,0.30
2023-01-18T00:29:10.372Z,0.27
2023-01-18T00:31:41.362Z,0.25
2023-01-18T00:34:11.636Z,0.22
2023-01-18T00:36:41.591Z,0.21
2023-01-18T00:39:12.989Z,0.25
2023-01-18T00:42:00.919Z,0.26
2023-01-18T00:44:31.147Z,0.24
2023-01-18T00:47:01.493Z,0.24
2023-01-18T00:49:33.973Z,0.23
2023-01-18T00:52:04.646Z,0.19
2023-01-18T00:54:38.342Z,0.12
2023-01-18T00:57:15.968Z,0.09
2023-01-18T00:59:50.764Z,0.10
2023-01-18T01:02:21.541Z,0.10
2023-01-18T01:05:08.619Z,0.12
2023-01-18T01:07:41.778Z,0.08
2023-01-18T01:10:16.915Z,0.06
2023-01-18T01:13:04.174Z,-0.03
2023-01-18T01:15:47.367Z,-0.08
2023-01-18T01:18:30.773Z,-0.07
2023-01-18T01:21:14.752Z,-0.11
2023-01-18T01:23:57.968Z,-0.06
2023-01-18T01:26:29.128Z,-0.13
2023-01-18T01:29:02.980Z,-0.08
2023-01-18T01:31:36.069Z,0.00
2023-01-18T01:34:07.223Z,0.03
2023-01-18T01:36:37.538Z,0.07
2023-01-18T01:39:10.913Z,0.01
2023-01-18T01:41:41.569Z,-0.10
2023-01-18T01:44:46.210Z,-0.29
2023-01-18T01:47:27.866Z,-0.22
2023-01-18T01:50:10.792Z,-0.18
2023-01-18T01:52:45.017Z,-0.16
2023-01-18T01:55:21.322Z,-0.22
2023-01-18T01:57:55.900Z,-0.24
2023-01-18T02:00:29.279Z,-0.34
2023-01-18T02:03:02.550Z,-0.27
2023-01-18T02:05:34.873Z,-0.20
2023-01-18T02:08:11.320Z,-0.16
2023-01-18T02:10:41.983Z,-0.13
2023-01-18T02:13:13.742Z,-0.10
2023-01-18T02:15:59.234Z,-0.03
2023-01-18T02:18:35.192Z,0.04
2023-01-18T02:21:21.298Z,0.07
2023-01-18T02:24:21.980Z,0.05
2023-01-18T02:27:01.858Z,-0.03
2023-01-18T02:29:53.879Z,-0.05
2023-01-18T02:32:32.335Z,0.00
2023-01-18T02:35:11.886Z,0.05
2023-01-18T02:37:49.597Z,0.04
2023-01-18T02:40:30.073Z,-0.05
2023-01-18T02:43:17.125Z,-0.04
2023-01-18T02:46:05.066Z,0.01
2023-01-18T02:48:38.870Z,0.07
2023-01-18T02:51:09.654Z,0.09
2023-01-18T02:53:42.980Z,0.04
2023-01-18T02:56:17.438Z,-0.02
2023-01-18T02:58:51.241Z,-0.02
2023-01-18T03:01:29.457Z,0.02
2023-01-18T03:04:05.085Z,-0.01
2023-01-18T03:06:36.682Z,-0.02
2023-01-18T03:09:07.192Z,-0.06
2023-01-18T03:11:46.839Z,-0.05
2023-01-18T03:14:28.575Z,-0.12
2023-01-18T03:17:10.972Z,-0.18
2023-01-18T03:19:59.684Z,-0.25
2023-01-18T03:22:46.280Z,-0.29
2023-01-18T03:25:21.666Z,-0.36
2023-01-18T03:28:09.053Z,-0.31
2023-01-18T03:30:54.073Z,-0.38
2023-01-18T03:33:46.509Z,-0.41
2023-01-18T03:36:24.965Z,-0.38
2023-01-18T03:38:58.555Z,-0.34
2023-01-18T03:41:33.254Z,-0.39
2023-01-18T03:44:09.603Z,-0.35
2023-01-18T03:46:40.952Z,-0.35
2023-01-18T03:49:18.561Z,-0.34
2023-01-18T03:51:58.353Z,-0.33
2023-01-18T03:54:36.540Z,-0.36
2023-01-18T03:57:12.878Z,-0.27
2023-01-18T03:59:44.058Z,-0.22
2023-01-18T04:02:14.945Z,-0.18
2023-01-18T04:04:47.821Z,-0.15
2023-01-18T04:07:17.767Z,-0.19
2023-01-18T04:09:48.060Z,-0.20
2023-01-18T04:12:18.055Z,-0.22
2023-01-18T04:14:48.411Z,-0.15
2023-01-18T04:17:19.050Z,-0.12
2023-01-18T04:19:52.535Z,-0.09
2023-01-18T04:22:22.902Z,-0.11
2023-01-18T04:24:53.187Z,-0.07
2023-01-18T04:27:25.101Z,-0.07
2023-01-18T04:29:56.964Z,-0.07
2023-01-18T04:32:28.850Z,-0.04
2023-01-18T04:35:01.742Z,0.01
2023-01-18T04:37:34.240Z,0.01
2023-01-18T04:40:04.679Z,0.00
2023-01-18T04:42:36.686Z,0.01
2023-01-18T04:45:14.078Z,-0.08
2023-01-18T04:47:45.094Z,-0.10
2023-01-18T04:50:18.286Z,-0.15
2023-01-18T04:52:48.549Z,-0.12
2023-01-18T04:55:19.024Z,-0.21
2023-01-18T04:57:49.186Z,-0.23
2023-01-18T05:00:21.430Z,-0.20
2023-01-18T05:02:51.377Z,-0.16
2023-01-18T05:05:26.251Z,-0.09
2023-01-18T05:07:56.816Z,-0.03
2023-01-18T05:10:27.106Z,0.01
2023-01-18T05:12:57.337Z,-0.01
2023-01-18T05:15:27.886Z,-0.01
2023-01-18T05:17:57.827Z,-0.01
2023-01-18T05:20:30.658Z,-0.03
2023-01-18T05:23:10.783Z,-0.07
2023-01-18T05:25:41.879Z,-0.04
2023-01-18T05:28:12.483Z,-0.06
2023-01-18T05:30:44.480Z,-0.08
2023-01-18T05:33:14.436Z,-0.04
2023-01-18T05:35:50.305Z,-0.01
2023-01-18T05:38:20.498Z,0.05
2023-01-18T05:40:52.839Z,0.08
2023-01-18T05:43:24.178Z,0.12
2023-01-18T05:45:56.446Z,0.12
2023-01-18T05:48:27.056Z,0.13
2023-01-18T05:51:00.024Z,0.17
2023-01-18T05:53:30.241Z,0.09
2023-01-18T05:56:01.965Z,0.09
2023-01-18T05:58:32.303Z,0.11
2023-01-18T06:01:02.741Z,0.16
2023-01-18T06:03:33.058Z,0.14
2023-01-18T06:06:06.738Z,0.18
2023-01-18T06:08:37.296Z,0.20
2023-01-18T06:11:10.449Z,0.24
2023-01-18T06:13:40.465Z,0.23
2023-01-18T06:16:12.110Z,0.25
2023-01-18T06:18:42.353Z,0.25
2023-01-18T06:21:17.993Z,0.26
2023-01-18T06:23:48.167Z,0.26
2023-01-18T06:26:18.681Z,0.28
2023-01-18T06:28:48.900Z,0.32
2023-01-18T06:31:19.317Z,0.33
2023-01-18T06:33:49.335Z,0.37
2023-01-18T06:36:22.260Z,0.38
2023-01-18T06:38:52.324Z,0.38
2023-01-18T06:41:22.634Z,0.42
2023-01-18T06:43:53.079Z,0.41
2023-01-18T06:46:23.562Z,0.40
2023-01-18T06:48:53.551Z,0.38
2023-01-18T06:51:26.712Z,0.38
2023-01-18T06:53:56.652Z,0.41
2023-01-18T06:56:26.888Z,0.43
2023-01-18T06:58:57.719Z,0.45
2023-01-18T07:01:28.552Z,0.42
2023-01-18T07:03:58.646Z,0.37
2023-01-18T07:06:32.202Z,0.38
2023-01-18T07:09:02.142Z,0.40
2023-01-18T07:11:32.625Z,0.39
2023-01-18T07:14:02.527Z,0.41
2023-01-18T07:16:32.900Z,0.42
2023-01-18T07:19:04.062Z,0.44
2023-01-18T07:21:37.170Z,0.47
2023-01-18T07:24:08.631Z,0.49
2023-01-18T07:26:39.084Z,0.49
2023-01-18T07:29:09.121Z,0.50
2023-01-18T07:31:40.599Z,0.50
2023-01-18T07:34:12.125Z,0.51
2023-01-18T07:36:45.146Z,0.50
2023-01-18T07:39:15.605Z,0.49
2023-01-18T07:41:46.271Z,0.50
2023-01-18T07:44:16.711Z,0.52
2023-01-18T07:46:47.059Z,0.51
2023-01-18T07:49:17.534Z,0.52
2023-01-18T07:51:50.401Z,0.54
2023-01-18T07:54:20.503Z,0.57
2023-01-18T07:56:51.481Z,0.57
2023-01-18T07:59:21.451Z,0.57
2023-01-18T08:01:51.999Z,0.58
2023-01-18T08:04:22.276Z,0.57
2023-01-18T08:06:55.466Z,0.62
2023-01-18T08:09:25.785Z,0.66
2023-01-18T08:11:56.328Z,0.66
2023-01-18T08:14:26.676Z,0.65
2023-01-18T08:16:57.384Z,0.65
2023-01-18T08:19:27.666Z,0.68
2023-01-18T08:22:00.547Z,0.68
2023-01-18T08:24:30.527Z,0.69
2023-01-18T08:27:00.787Z,0.73
2023-01-18T08:29:30.739Z,0.76
2023-01-18T08:32:02.448Z,0.76
2023-01-18T08:34:32.388Z,0.79
2023-01-18T08:37:05.646Z,0.76
2023-01-18T08:39:35.621Z,0.80
2023-01-18T08:42:05.990Z,0.82
2023-01-18T08:44:35.951Z,0.79
2023-01-18T08:47:06.272Z,0.78
2023-01-18T08:49:36.276Z,0.80
2023-01-18T08:52:10.949Z,0.82
2023-01-18T08:54:40.895Z,0.90
2023-01-18T08:57:11.165Z,0.93
2023-01-18T08:59:41.089Z,0.93
2023-01-18T09:02:12.833Z,0.97
2023-01-18T09:04:47.446Z,0.96
2023-01-18T09:07:20.881Z,0.99
2023-01-18T09:09:51.740Z,1.03
2023-01-18T09:12:22.468Z,1.06
2023-01-18T09:14:52.991Z,1.10
2023-01-18T09:17:23.597Z,1.15
2023-01-18T09:19:54.439Z,1.19
2023-01-18T09:22:30.132Z,1.23
2023-01-18T09:25:00.323Z,1.24
2023-01-18T09:27:30.674Z,1.32
2023-01-18T09:30:01.949Z,1.31
2023-01-18T09:32:32.394Z,1.37
2023-01-18T09:35:02.362Z,1.35
2023-01-18T09:37:40.362Z,1.41
2023-01-18T09:40:19.130Z,1.46
2023-01-18T09:42:52.833Z,1.51
2023-01-18T09:45:32.029Z,1.51
2023-01-18T09:48:07.594Z,1.55
2023-01-18T09:50:44.328Z,1.58
2023-01-18T09:53:31.459Z,1.61
2023-01-18T09:56:08.231Z,1.66
2023-01-18T09:58:50.309Z,1.67
2023-01-18T10:01:24.741Z,1.69
2023-01-18T10:03:59.287Z,1.71
2023-01-18T10:06:32.353Z,1.75
2023-01-18T10:09:07.916Z,1.78
2023-01-18T10:11:47.215Z,1.82
2023-01-18T10:14:21.546Z,1.82
2023-01-18T10:16:57.787Z,1.86
2023-01-18T10:19:31.365Z,1.89
2023-01-18T10:22:09.129Z,1.89
2023-01-18T10:24:48.725Z,1.91
2023-01-18T10:27:32.071Z,1.85
2023-01-18T10:30:14.442Z,1.96
2023-01-18T10:32:50.824Z,1.91
2023-01-18T10:35:32.105Z,1.87
2023-01-18T10:38:06.463Z,1.92
2023-01-18T10:40:41.831Z,1.94
2023-01-18T10:43:17.329Z,1.98
2023-01-18T10:45:48.305Z,2.04
2023-01-18T10:48:28.109Z,2.05
2023-01-18T10:51:01.266Z,2.08
2023-01-18T10:53:35.205Z,2.07
2023-01-18T10:56:13.737Z,2.11
2023-01-18T10:58:47.051Z,2.12
2023-01-18T11:01:22.339Z,2.14
2023-01-18T11:03:54.801Z,2.13
2023-01-18T11:06:26.456Z,2.19
2023-01-18T11:08:57.121Z,2.20
2023-01-18T11:11:47.895Z,2.24
2023-01-18T11:14:29.342Z,2.26
2023-01-18T11:17:02.182Z,2.19
2023-01-18T11:19:33.335Z,2.30
2023-01-18T11:22:03.869Z,2.32
2023-01-18T11:24:34.998Z,2.30
2023-01-18T11:27:14.728Z,2.35
2023-01-18T11:29:48.267Z,2.41
2023-01-18T11:32:24.599Z,2.40
2023-01-18T11:34:57.249Z,2.43
2023-01-18T11:37:34.411Z,2.41
2023-01-18T11:40:28.059Z,2.39
2023-01-18T11:43:05.064Z,2.42
2023-01-18T11:45:40.423Z,2.49
2023-01-18T11:48:20.370Z,2.56
2023-01-18T11:50:54.707Z,2.58
2023-01-18T11:53:33.429Z,2.50
2023-01-18T11:56:08.793Z,2.52
2023-01-18T11:58:43.196Z,2.57
2023-01-18T12:01:29.155Z,2.64
2023-01-18T12:04:05.181Z,2.71
2023-01-18T12:06:47.372Z,2.71
2023-01-18T12:09:37.450Z,2.73
2023-01-18T12:12:25.668Z,2.70
2023-01-18T12:15:24.209Z,2.69
2023-01-18T12:18:13.953Z,2.66
2023-01-18T12:20:58.503Z,2.70
2023-01-18T12:23:50.528Z,2.67
2023-01-18T12:26:33.335Z,2.66
2023-01-18T12:29:29.348Z,2.68
2023-01-18T12:32:27.408Z,2.63
2023-01-18T12:35:23.224Z,2.60
2023-01-18T12:38:04.940Z,2.52
2023-01-18T12:40:50.045Z,2.52
2023-01-18T12:43:37.156Z,2.50
2023-01-18T12:46:10.911Z,2.49
2023-01-18T12:48:51.436Z,2.53
2023-01-18T12:51:25.548Z,2.56
2023-01-18T12:54:00.529Z,2.58
2023-01-18T12:56:34.376Z,2.49
2023-01-18T12:59:08.588Z,2.53
2023-01-18T13:01:45.025Z,2.43
2023-01-18T13:04:23.363Z,2.48
2023-01-18T13:06:56.822Z,2.36
2023-01-18T13:09:34.275Z,2.35
2023-01-18T13:12:05.880Z,2.34
2023-01-18T13:14:45.007Z,2.39
2023-01-18T13:17:24.657Z,2.41
2023-01-18T13:20:01.763Z,2.43
2023-01-18T13:22:42.361Z,2.34
2023-01-18T13:25:30.685Z,2.29
2023-01-18T13:28:02.934Z,2.30
2023-01-18T13:30:35.703Z,2.28
2023-01-18T13:33:17.083Z,2.35
2023-01-18T13:35:57.709Z,2.40
2023-01-18T13:38:40.986Z,2.45
2023-01-18T13:41:16.908Z,2.48
2023-01-18T13:44:05.983Z,2.51
2023-01-18T13:46:39.547Z,2.58
2023-01-18T13:49:37.969Z,2.59
2023-01-18T13:52:42.210Z,2.61
2023-01-18T13:55:31.171Z,2.63
2023-01-18T13:58:02.123Z,2.65
2023-01-18T14:00:35.185Z,2.59
2023-01-18T14:03:07.691Z,2.64
2023-01-18T14:05:41.052Z,2.60
2023-01-18T14:08:21.614Z,2.59
2023-01-18T14:10:54.016Z,2.57
2023-01-18T14:14:02.896Z,2.56
2023-01-18T14:16:36.224Z,2.63
2023-01-18T14:19:17.977Z,2.61
2023-01-18T14:22:10.206Z,2.59
2023-01-18T14:24:54.200Z,2.47
2023-01-18T14:27:27.127Z,2.26
2023-01-18T14:30:02.782Z,2.22
2023-01-18T14:32:39.575Z,2.21
2023-01-18T14:35:20.805Z,2.11
2023-01-18T14:37:51.611Z,2.00
2023-01-18T14:40:28.383Z,1.98
2023-01-18T14:43:01.655Z,2.01
2023-01-18T14:45:35.138Z,1.93
2023-01-18T14:48:12.349Z,1.99
2023-01-18T14:50:45.905Z,1.95
2023-01-18T14:53:20.913Z,1.85
2023-01-18T14:56:10.647Z,1.88
2023-01-18T14:58:43.845Z,1.85
2023-01-18T15:01:29.381Z,1.99
2023-01-18T15:04:02.516Z,1.86
2023-01-18T15:06:41.571Z,1.98
2023-01-18T15:09:13.792Z,2.04
2023-01-18T15:11:47.656Z,2.12
2023-01-18T15:14:22.069Z,2.21
2023-01-18T15:16:58.780Z,2.30
2023-01-18T15:19:36.861Z,2.33
2023-01-18T15:22:08.526Z,2.22
2023-01-18T15:24:42.666Z,2.18
2023-01-18T15:27:18.939Z,2.20
2023-01-18T15:29:50.938Z,2.28
2023-01-18T15:32:24.338Z,2.22
2023-01-18T15:34:57.668Z,2.22
2023-01-18T15:37:31.127Z,2.27
2023-01-18T15:40:03.387Z,2.30
2023-01-18T15:42:40.949Z,2.31
2023-01-18T15:45:20.823Z,2.39
2023-01-18T15:47:53.051Z,2.45
2023-01-18T15:50:24.729Z,2.54
2023-01-18T15:53:06.266Z,2.63
2023-01-18T15:55:40.019Z,2.83
2023-01-18T15:58:16.995Z,2.75
2023-01-18T16:00:55.927Z,2.66
2023-01-18T16:03:28.480Z,2.61
2023-01-18T16:06:11.209Z,2.61
2023-01-18T16:08:59.348Z,2.49
2023-01-18T16:11:33.063Z,2.48
2023-01-18T16:14:13.000Z,2.47
2023-01-18T16:16:44.770Z,2.46
2023-01-18T16:19:23.846Z,2.47
2023-01-18T16:21:57.560Z,2.50
2023-01-18T16:24:33.091Z,2.49
2023-01-18T16:27:12.770Z,2.50
2023-01-18T16:29:48.800Z,2.52
2023-01-18T16:32:34.547Z,2.56
2023-01-18T16:35:13.504Z,2.58
2023-01-18T16:37:44.492Z,2.56
2023-01-18T16:40:17.107Z,2.56
2023-01-18T16:43:02.450Z,2.55
2023-01-18T16:45:37.926Z,2.44
2023-01-18T16:48:08.909Z,2.39
2023-01-18T16:50:40.729Z,2.38
2023-01-18T16:53:11.990Z,2.34
2023-01-18T16:55:44.028Z,2.20
2023-01-18T16:58:15.223Z,2.15
2023-01-18T17:00:53.811Z,2.19
2023-01-18T17:03:24.160Z,2.15
2023-01-18T17:05:55.436Z,2.05
2023-01-18T17:08:26.047Z,2.12
2023-01-18T17:10:57.597Z,2.16
2023-01-18T17:13:27.887Z,2.24
2023-01-18T17:16:00.989Z,2.14
2023-01-18T17:18:31.145Z,2.20
2023-01-18T17:21:01.852Z,2.27
2023-01-18T17:23:32.314Z,2.25
2023-01-18T17:26:02.854Z,2.15
2023-01-18T17:28:36.112Z,2.06
2023-01-18T17:31:09.556Z,2.04
2023-01-18T17:33:40.647Z,1.67
2023-01-18T17:36:11.923Z,1.80
2023-01-18T17:38:42.451Z,1.71
2023-01-18T17:41:27.625Z,1.78
2023-01-18T17:43:58.602Z,1.77
2023-01-18T17:46:31.826Z,1.76
2023-01-18T17:49:02.739Z,1.70
2023-01-18T17:51:38.290Z,1.82
2023-01-18T17:54:13.279Z,1.81
2023-01-18T17:56:51.060Z,1.68
2023-01-18T17:59:21.872Z,1.69
2023-01-18T18:01:55.375Z,1.61
2023-01-18T18:04:25.962Z,1.68
2023-01-18T18:06:58.789Z,1.50
2023-01-18T18:09:29.369Z,1.55
2023-01-18T18:12:00.138Z,1.51
2023-01-18T22:56:22.048Z,-1.28
2023-01-18T22:58:56.565Z,-1.22
2023-01-18T23:01:29.251Z,-1.33
2023-01-18T23:04:01.364Z,-1.31
2023-01-18T23:06:34.787Z,-1.30
2023-01-18T23:09:05.370Z,-1.27
2023-01-18T23:11:38.507Z,-1.26
2023-01-18T23:14:22.409Z,-1.26
2023-01-18T23:17:05.306Z,-1.25
2023-01-18T23:19:36.148Z,-1.36
2023-01-18T23:22:07.599Z,-1.37
2023-01-18T23:24:38.949Z,-1.39
2023-01-18T23:27:12.467Z,-1.47
2023-01-18T23:29:42.937Z,-1.42
2023-01-18T23:32:13.148Z,-1.49
2023-01-18T23:34:44.112Z,-1.48
2023-01-18T23:37:14.466Z,-1.48
2023-01-18T23:39:57.310Z,-1.42
2023-01-18T23:42:42.250Z,-1.44
2023-01-18T23:45:25.435Z,-1.49
2023-01-18T23:48:07.870Z,-1.48
2023-01-18T23:50:50.846Z,-1.52
2023-01-18T23:53:33.209Z,-1.59
2023-01-18T23:56:03.547Z,-1.63
2023-01-18T23:58:36.107Z,-1.63
